juin
05

GP DE FRANCE À SAINT-JEAN D’ANGELY : ANTONIO CAIROLI ET GAUTIER PAULIN S’IMPOSENT AUX QUALIFICATIONS

MX1 – Qualifying Race – Classification
Pos Nr Rider Nat. Fed. Bike Time laps Diff. First Diff. Prev. Bestlaptime in lap Speed

1 222 Cairoli, Antonio ITA FMI KTM 25:28.968 13 0:00.000 0:00.000 1:53.623 7 50.377
2 121 Boog, Xavier FRA FFM Kawasaki 25:38.130 13 0:09.162 0:09.162 1:54.194 6 50.125
3 25 Desalle, Clement BEL FMB Suzuki 25:46.105 13 0:17.137 0:07.975 1:54.066 5 50.181
4 11 Ramon, Steve BEL FMB Suzuki 25:50.867 13 0:21.899 0:04.762 1:54.164 8 50.138
5 39 Guarneri, Davide ITA FMI Honda 25:57.805 13 0:28.837 0:06.938 1:55.205 5 49.685
6 10 Boissiere, Anthony FRA FFM TM 26:01.230 13 0:32.262 0:03.425 1:55.052 5 49.751
7 19 Philippaerts, David ITA FMI Yamaha 26:02.554 13 0:33.586 0:01.324 1:54.955 7 49.793
8 4 Strijbos, Kevin BEL FMB Suzuki 26:09.849 13 0:40.881 0:07.295 1:55.541 3 49.541
9 90 Pourcel, Sebastien FRA FFM Kawasaki 26:13.357 13 0:44.389 0:03.508 1:55.716 12 49.466
10 331 Aubin, Nicolas FRA FFM Kawasaki 26:13.839 13 0:44.871 0:00.482 1:55.275 6 49.655
11 40 Leok, Tanel EST EMF Honda 26:18.219 13 0:49.251 0:04.380 1:54.752 9 49.881
12 8 Swanepoel, Gareth RSA ACU Honda 26:22.326 13 0:53.358 0:04.107 1:56.801 5 49.006
13 6 Coppins, Joshua NZL MNZ Aprilia 26:23.056 13 0:54.088 0:00.730 1:56.138 12 49.286
14 9 de Dycker, Ken BEL FMB Yamaha 26:35.417 13 1:06.449 0:12.361 1:57.418 7 48.749
15 22 Goncalves, Rui POR FMP KTM 26:40.482 13 1:11.514 0:05.065 1:57.265 11 48.813
16 321 Potisek, Milko FRA FFM Honda 26:51.212 13 1:22.244 0:10.730 1:57.858 4 48.567
17 36 Bonini, Matteo ITA FMI Yamaha 26:54.333 13 1:25.365 0:03.121 1:58.042 8 48.491
18 777 Bobryshev, Evgeny RUS MFR Honda 27:01.516 13 1:32.548 0:07.183 1:57.842 10 48.574
19 131 Michek, Martin CZE ACCR TM 27:02.612 13 1:33.644 0:01.096 1:59.836 10 47.765
20 77 Terreblanche, Shannon RSA DMSB Kawasaki 27:05.362 13 1:36.394 0:02.750 1:58.994 5 48.103
21 57 Neugebauer, Filip CZE DMSB Kawasaki 27:06.465 13 1:37.497 0:01.103 1:59.597 12 47.861
22 52 Walkner, Matthias AUT OeAMTC KTM 27:08.342 13 1:39.374 0:01.877 1:58.555 11 48.281
23 49 Schmidinger, Günter AUT OeAMTC Suzuki 27:12.544 13 1:43.576 0:04.202 2:00.240 4 47.605
24 120 Soubeyras, Cedric FRA FFM KTM 27:21.091 13 1:52.123 0:08.547 2:00.820 2 47.376
25 383 Bellino, Mathias FRA FFM KTM 27:22.208 13 1:53.240 0:01.117 2:00.776 13 47.394
26 2 Nagl, Maximilian GER DMSB KTM 23:54.077 12 1 lap 1 lap 1:54.493 5 49.994
27 41 Demeure, Medric FRA FFM KTM 26:00.354 12 1 lap 2:06.277 2:02.237 4 46.827
28 75 Wouts, Kevin BEL FMB Kawasaki 26:08.404 12 1 lap 0:08.050 2:02.004 5 46.916
29 76 Sandberg, Rickard SWE SVEMO Kawasaki 26:21.378 12 1 lap 0:12.974 2:03.921 6 46.191
30 74 Steinbergs, Ivo LAT LAMSF Honda 26:52.169 12 1 lap 0:30.791 2:04.376 3 46.022
31 45 Leonce, Loic FRA FFM Suzuki 19:53.764 9 4 laps 3 laps 2:04.230 4 46.076
32 175 Sandouly, Frederic FRA FFM Yamaha 27:41.605 9 4 laps 7:47.841 2:06.709 4 45.174
33 17 Söderström, Tom SWE SVEMO Yamaha 11:01.380 5 8 laps 4 laps 2:01.209 4 47.224
34 15 Bill, Julien SUI FMS Aprilia 5:04.569 2 11 laps 3 laps 2:09.016 1 44.367

MX2 – Qualifying Race – Classification
Pos Nr Rider Nat. Fed. Bike Time laps Diff. First Diff. Prev. Bestlaptime in lap Speed

1 21 Paulin, Gautier FRA MCM Yamaha 25:32.338 13 0:00.000 0:00.000 1:52.780 6 50.754
2 1 Musquin, Marvin FRA FFM KTM 25:35.974 13 0:03.636 0:03.636 1:52.670 4 50.803
3 111 Herlings, Jeffrey NED KNMV KTM 25:46.034 13 0:13.696 0:10.060 1:54.374 9 50.046
4 183 Frossard, Steven FRA FFM Kawasaki 25:51.025 13 0:18.687 0:04.991 1:54.276 7 50.089
5 11 Simpson, Shaun GBR MCUI KTM 25:53.661 13 0:21.323 0:02.636 1:55.111 2 49.726
6 94 Roczen, Ken GER DMSB Suzuki 25:56.061 13 0:23.723 0:02.400 1:54.777 5 49.871
7 89 van Horebeek, Jeremy BEL FMB Kawasaki 26:17.983 13 0:45.645 0:21.922 1:55.115 5 49.724
8 335 Verbruggen, Dennis BEL FMB KTM 26:22.811 13 0:50.473 0:04.828 1:56.536 2 49.118
9 23 Tonus, Arnaud SUI FMS Suzuki 26:24.392 13 0:52.054 0:01.581 1:57.063 3 48.897
10 91 Karro, Matiss LAT LAMSF Suzuki 26:25.509 13 0:53.171 0:01.117 1:57.558 7 48.691
11 37 Teillet, Valentin FRA FFM KTM 26:26.826 13 0:54.488 0:01.317 1:56.919 8 48.957
12 202 Larrieu, Loic FRA FFM Yamaha 26:29.406 13 0:57.068 0:02.580 1:56.114 3 49.296
13 430 Charlier, Christophe FRA FFM Yamaha 26:46.480 13 1:14.142 0:17.074 1:57.640 6 48.657
14 338 Osborne, Zach USA AMA Yamaha 26:53.890 13 1:21.552 0:07.410 1:54.702 3 49.903
15 811 Dagod, Hugo FRA FFM KTM 26:55.133 13 1:22.795 0:01.243 1:59.250 2 48
16 35 Larsen, Nikolaj DEN DMU Honda 26:58.124 13 1:25.786 0:02.991 1:58.261 5 48.401
17 52 Alletru, Axel FRA FFM KTM 27:00.956 13 1:28.618 0:02.832 1:59.369 5 47.952
18 119 Pocock, Mel GBR ACU Yamaha 27:02.913 13 1:30.575 0:01.957 1:57.629 8 48.661
19 300 Tonkov, Aleksandr RUS DMSB Suzuki 27:06.572 13 1:34.234 0:03.659 1:58.743 3 48.205
20 151 Kullas, Harri FIN SML Yamaha 27:07.515 13 1:35.177 0:00.943 1:59.213 8 48.015
21 225 Lefrancois, Charles FRA FFM Honda 27:20.958 13 1:48.620 0:13.443 2:00.821 8 47.376
22 77 Lupino, Alessandro ITA FMI Yamaha 27:22.913 13 1:50.575 0:01.955 1:59.609 7 47.856
23 64 Vongsana, Khounsith FRA FFM KTM 27:28.478 13 1:56.140 0:05.565 2:00.340 1 47.565
24 12 Hawkins, Luke GBR ACU Honda 27:29.549 13 1:57.211 0:01.071 2:01.210 7 47.224
25 92 Battig, Alesandro ITA FMI Honda 27:32.274 13 1:59.936 0:02.725 1:59.327 7 47.969
26 95 Justs, Augusts LAT LAMSF Honda 27:35.113 13 2:02.775 0:02.839 2:01.662 6 47.048
27 824 Kouwenberg, Nick NED KNMV Suzuki 25:36.431 12 1 lap 1 lap 1:59.856 6 47.757
28 152 Petrov, Petar BUL BMF Honda 25:37.598 12 1 lap 0:01.167 2:01.335 8 47.175
29 414 Philippaerts, Deny ITA FMI Suzuki 25:39.931 12 1 lap 0:02.333 2:01.540 8 47.096
30 153 Maddii, Marco ITA FMI Suzuki 25:40.926 12 1 lap 0:00.995 2:01.475 9 47.121
31 34 Roelants, Joel BEL FMB KTM 25:41.896 12 1 lap 0:00.970 1:59.618 8 47.852
32 30 Klein Kromhof, Ceriel NED KNMV Yamaha 25:48.764 12 1 lap 0:06.868 2:01.669 6 47.046
33 707 Kappel, Robin FRA FFM KTM 25:49.700 12 1 lap 0:00.936 2:02.645 8 46.671
34 216 Adam, David FRA FFM KTM 25:54.576 12 1 lap 0:04.876 2:01.710 3 47.03
35 75 Triest, Nick BEL FMB KTM 26:03.061 12 1 lap 0:08.485 2:03.032 8 46.524
36 90 Moroni, Rudi ITA FMI Yamaha 26:54.168 12 1 lap 0:51.107 1:59.270 6 47.992
37 62 Gercar, Klemen SLO AMZS KTM 18:59.214 9 4 laps 3 laps 1:58.728 2 48.211
38 45 Nicholls, Jake GBR ACU KTM 15:29.474 7 6 laps 2 laps 1:59.007 4 48.098
39 170 Leib, Michael USA AMA Kawasaki 7:25.994 2 11 laps 5 laps 2:18.138 1 41.437

WMX – Race 1 – Classification
Pos Nr Rider Nat. Fed. Bike Time laps Diff. First Diff. Prev. Bestlaptime in lap Speed

1 1 Laier, Stephanie GER DMSB KTM 26:34.902 12 0:00.000 0:00.000 2:06.928 3 45.096
2 114 Lancelot, Livia FRA FFM KTM 26:48.486 12 0:13.584 0:13.584 2:08.766 4 44.453
3 103 Franke, Maria GER DMSB KTM 26:50.460 12 0:15.558 0:01.974 2:08.775 2 44.45
4 2 Papenmeier, Larissa GER DMSB Suzuki 27:23.471 12 0:48.569 0:33.011 2:09.655 4 44.148
5 99 Mann, Elin SWE SVEMO KTM 28:03.685 12 1:28.783 0:40.214 2:12.068 3 43.341
6 7 De Mol, Marielle NED KNMV Yamaha 28:17.661 12 1:42.759 0:13.976 2:13.363 3 42.92
7 8 Fontanesi, Chiara ITA FMI Yamaha 28:19.094 12 1:44.192 0:01.433 2:13.991 9 42.719
8 116 Nocera, Francesca ITA FMI Honda 28:44.818 12 2:09.916 0:25.724 2:15.496 6 42.245
9 44 Kane, Natalie GBR MCUI KTM 26:37.977 11 1 lap 1 lap 2:08.356 2 44.595
10 11 van Wordragen, Nicky NED KNMV Yamaha 26:41.093 11 1 lap 0:03.116 2:18.005 6 41.477
11 51 Scott, Nikki NZL MUL KTM 26:43.876 11 1 lap 0:02.783 2:18.193 3 41.42
12 89 De Winter, Elien BEL FMB KTM 26:54.128 11 1 lap 0:10.252 2:20.290 4 40.801
13 52 Charroux, Justine FRA FFM Yamaha 27:16.790 11 1 lap 0:22.662 2:20.325 5 40.791
14 22 Petterson, Sara SWE SVEMO KTM 27:25.687 11 1 lap 0:08.897 2:22.146 8 40.268
15 46 van der Wekken, Britt NED KNMV Honda 27:27.343 11 1 lap 0:01.656 2:22.823 4 40.078
16 86 Verkade, Shirley NED KNMV KTM 27:36.558 11 1 lap 0:09.215 2:23.644 4 39.849
17 123 Giroux, Manon FRA FFM Yamaha 27:38.373 11 1 lap 0:01.815 2:20.991 3 40.598
18 92 Segura Pereira, Carmen ESP RFME KTM 27:42.575 11 1 lap 0:04.202 2:24.263 3 39.678
19 66 Einarsdottir, Bryndis ISL MSI KTM 27:52.851 11 1 lap 0:10.276 2:22.977 2 40.034
20 221 Simonet, Annabelle FRA FFM Kawasaki 27:55.478 11 1 lap 0:02.627 2:23.106 3 39.998
21 55 Irmgartz, Kim GER DMSB Yamaha 28:01.207 11 1 lap 0:05.729 2:23.840 5 39.794
22 77 Johansson, Sofia SWE SVEMO KTM 28:37.721 11 1 lap 0:36.514 2:28.134 3 38.641
23 60 Bartova, Jana CZE ACCR Kawasaki 28:42.686 11 1 lap 0:04.965 2:23.081 3 40.005
24 30 Seisdedos, Gabriela ESP RFME Kawasaki 28:44.008 11 1 lap 0:01.322 2:25.978 3 39.211
25 36 de Barquin, Morane BEL FMB KTM 28:57.049 11 1 lap 0:13.041 2:28.056 3 38.661
26 113 Paull, Sophia GBR ACU Yamaha 28:57.814 11 1 lap 0:00.765 2:28.522 4 38.54
27 102 Pillet, Florence SUI FMS KTM 27:05.644 10 2 laps 1 lap 2:32.134 4 37.625
28 19 Lankova, Barbora CZE ACCR Kawasaki 27:19.216 10 2 laps 0:13.572 2:33.577 4 37.271
29 33 Holmes, Melissa AUS MA Honda 27:46.468 10 2 laps 0:27.252 2:36.673 6 36.535
30 115 Jussiaume, Lucie FRA FFM Kawasaki 27:51.011 10 2 laps 0:04.543 2:36.051 4 36.68
31 75 Van De Velde, Jessica BEL FMB Honda 28:23.790 10 2 laps 0:32.779 2:39.183 2 35.959
32 21 Partida, Aurelie FRA FFM Honda 27:15.921 9 3 laps 1 lap 2:39.045 2 35.99
33 987 Lago, Erica ITA FMI Suzuki 27:18.519 9 3 laps 0:02.598 2:45.634 1 34.558
34 15 Peyssard, Julie FRA FFM Suzuki 27:23.262 9 3 laps 0:04.743 2:39.911 1 35.795
35 149 Veenstra, Marianne NED KNMV Suzuki 29:26.861 9 3 laps 2:03.599 2:18.507 3 41.326
36 16 Geyerhofen, Selina AUT OeAMTC KTM 17:04.922 5 7 laps 4 laps 2:35.433 5 36.826

(Photos : Ray Archer/KTM & Yamaha Racing)

A voir aussi :

Le commentaires sont fermés.